createdAt,value
2023-01-25T00:00:13.780Z,42.47
2023-01-25T00:02:42.223Z,40.33
2023-01-25T00:05:11.602Z,41.75
2023-01-25T00:07:40.132Z,45.55
2023-01-25T00:10:10.280Z,41.70
2023-01-25T00:12:39.300Z,41.60
2023-01-25T00:15:11.669Z,39.85
2023-01-25T00:17:41.410Z,43.42
2023-01-25T00:20:11.887Z,40.45
2023-01-25T00:22:40.571Z,40.25
2023-01-25T00:25:10.522Z,41.92
2023-01-25T00:27:39.124Z,41.38
2023-01-25T00:30:46.764Z,41.85
2023-01-25T00:33:45.716Z,41.30
2023-01-25T00:36:34.843Z,44.97
2023-01-25T00:39:03.349Z,43.58
2023-01-25T00:41:32.377Z,42.60
2023-01-25T00:44:01.514Z,44.78
2023-01-25T00:46:31.735Z,43.25
2023-01-25T00:49:00.451Z,49.63
2023-01-25T00:51:29.331Z,45.40
2023-01-25T00:53:58.417Z,43.17
2023-01-25T00:56:27.207Z,44.47
2023-01-25T00:58:55.973Z,41.97
2023-01-25T01:01:24.603Z,46.00
2023-01-25T01:03:54.955Z,48.53
2023-01-25T01:07:19.488Z,43.72
2023-01-25T01:09:48.207Z,49.38
2023-01-25T01:12:16.817Z,46.53
2023-01-25T01:14:45.754Z,45.17
2023-01-25T01:17:14.357Z,45.00
2023-01-25T01:19:44.513Z,46.60
2023-01-25T01:22:13.192Z,48.40
2023-01-25T01:24:42.305Z,46.78
2023-01-25T01:27:11.248Z,46.50
2023-01-25T01:29:40.030Z,47.67
2023-01-25T01:32:08.802Z,46.83
2023-01-25T01:34:37.684Z,47.35
2023-01-25T01:37:07.937Z,51.55
2023-01-25T01:39:36.428Z,51.80
2023-01-25T01:42:05.723Z,43.38
2023-01-25T01:44:48.718Z,45.67
2023-01-25T01:47:23.894Z,48.85
2023-01-25T01:50:02.573Z,47.20
2023-01-25T01:52:38.980Z,50.85
2023-01-25T01:55:14.700Z,50.35
2023-01-25T01:57:50.488Z,45.63
2023-01-25T02:00:24.587Z,48.70
2023-01-25T02:02:54.079Z,48.10
2023-01-25T02:05:32.159Z,50.78
2023-01-25T02:08:05.302Z,44.88
2023-01-25T02:10:36.093Z,47.95
2023-01-25T02:13:04.862Z,48.70
2023-01-25T02:15:41.942Z,47.85
2023-01-25T02:18:11.952Z,50.17
2023-01-25T02:20:43.655Z,52.92
2023-01-25T02:23:24.951Z,43.90
2023-01-25T02:25:55.378Z,50.35
2023-01-25T02:28:29.011Z,49.55
2023-01-25T02:30:57.886Z,44.92
2023-01-25T02:33:27.525Z,50.40
2023-01-25T02:36:01.448Z,46.15
2023-01-25T02:38:34.391Z,46.67
2023-01-25T02:41:11.677Z,44.20
2023-01-25T02:43:42.212Z,53.05
2023-01-25T02:46:19.637Z,48.92
2023-01-25T02:48:48.311Z,47.05
2023-01-25T02:51:16.798Z,50.47
2023-01-25T02:53:45.151Z,50.15
2023-01-25T02:56:15.244Z,50.30
2023-01-25T02:58:43.985Z,47.88
2023-01-25T03:01:14.692Z,44.63
2023-01-25T03:03:44.007Z,51.08
2023-01-25T03:06:12.769Z,48.92
2023-01-25T03:08:44.652Z,49.17
2023-01-25T03:11:14.528Z,53.92
2023-01-25T03:13:44.631Z,50.15
2023-01-25T03:16:14.594Z,58.80
2023-01-25T03:18:45.962Z,58.70
2023-01-25T03:21:17.334Z,51.83
2023-01-25T03:23:48.395Z,53.85
2023-01-25T03:26:26.426Z,49.40
2023-01-25T03:29:17.542Z,51.08
2023-01-25T03:31:47.581Z,52.22
2023-01-25T03:34:17.143Z,57.67
2023-01-25T03:36:45.731Z,57.47
2023-01-25T03:39:15.102Z,60.10
2023-01-25T03:41:47.137Z,54.75
2023-01-25T03:44:15.633Z,62.05
2023-01-25T03:46:46.707Z,59.45
2023-01-25T03:49:15.080Z,64.78
2023-01-25T03:51:43.907Z,57.83
2023-01-25T03:54:12.555Z,53.80
2023-01-25T03:56:42.180Z,52.33
2023-01-25T03:59:20.645Z,55.03
2023-01-25T04:01:48.952Z,52.63
2023-01-25T04:04:17.794Z,58.63
2023-01-25T04:06:47.908Z,60.17
2023-01-25T04:09:17.639Z,64.38
2023-01-25T04:11:51.542Z,59.22
2023-01-25T04:14:31.973Z,59.60
2023-01-25T04:17:08.588Z,67.25
2023-01-25T04:19:49.759Z,68.63
2023-01-25T04:22:21.533Z,63.53
2023-01-25T04:24:52.700Z,66.43
2023-01-25T04:27:22.114Z,71.30
2023-01-25T04:30:00.416Z,64.95
2023-01-25T04:32:29.561Z,71.93
2023-01-25T04:35:00.293Z,69.22
2023-01-25T04:37:30.711Z,70.72
2023-01-25T04:40:00.951Z,63.97
2023-01-25T04:42:34.357Z,59.53
2023-01-25T04:45:04.984Z,62.33
2023-01-25T04:47:33.543Z,59.13
2023-01-25T04:50:02.016Z,68.88
2023-01-25T04:52:32.649Z,79.80
2023-01-25T04:55:01.045Z,70.65
2023-01-25T04:57:32.417Z,66.47
2023-01-25T05:00:01.087Z,68.22
2023-01-25T05:02:33.168Z,64.15
2023-01-25T05:05:01.864Z,59.72
2023-01-25T05:07:30.749Z,67.50
2023-01-25T05:09:59.435Z,68.97
2023-01-25T05:12:29.131Z,70.43
2023-01-25T05:15:04.925Z,70.63
2023-01-25T05:17:35.406Z,68.78
2023-01-25T05:20:04.349Z,58.63
2023-01-25T05:22:33.039Z,64.88
2023-01-25T05:25:02.811Z,58.72
2023-01-25T05:27:31.230Z,67.07
2023-01-25T05:30:21.216Z,58.50
2023-01-25T05:33:04.293Z,57.58
2023-01-25T05:35:32.720Z,61.42
2023-01-25T05:38:01.567Z,65.68
2023-01-25T05:40:30.914Z,71.03
2023-01-25T05:43:02.799Z,62.80
2023-01-25T05:45:32.919Z,50.78
2023-01-25T05:48:04.170Z,63.03
2023-01-25T05:50:32.665Z,54.63
2023-01-25T05:53:05.399Z,56.45
2023-01-25T05:55:37.461Z,60.53
2023-01-25T05:58:10.679Z,57.00
2023-01-25T06:00:40.378Z,54.83
2023-01-25T06:03:10.752Z,56.35
2023-01-25T06:05:41.085Z,51.43
2023-01-25T06:08:09.648Z,54.53
2023-01-25T06:10:47.662Z,56.85
2023-01-25T06:13:16.329Z,57.40
2023-01-25T06:15:44.975Z,56.20
2023-01-25T06:18:38.642Z,53.08
2023-01-25T06:21:22.465Z,55.83
2023-01-25T06:23:50.815Z,49.80
2023-01-25T06:26:19.415Z,47.53
2023-01-25T06:28:47.961Z,48.90
2023-01-25T06:31:19.160Z,51.17
2023-01-25T06:33:52.938Z,56.72
2023-01-25T06:36:23.848Z,56.78
2023-01-25T06:38:53.875Z,55.00
2023-01-25T06:41:23.180Z,56.38
2023-01-25T06:43:53.005Z,57.03
2023-01-25T06:46:21.810Z,51.83
2023-01-25T06:48:51.987Z,53.33
2023-01-25T06:51:20.954Z,51.92
2023-01-25T06:53:49.421Z,51.92
2023-01-25T06:56:22.211Z,53.35
2023-01-25T06:58:51.158Z,59.13
2023-01-25T07:01:22.566Z,57.00
2023-01-25T07:03:54.966Z,54.22
2023-01-25T07:06:24.437Z,55.53
2023-01-25T07:08:53.424Z,58.03
2023-01-25T07:11:21.885Z,52.40
2023-01-25T07:13:50.375Z,55.60
2023-01-25T07:16:21.740Z,51.80
2023-01-25T07:18:51.669Z,48.63
2023-01-25T07:21:23.162Z,45.15
2023-01-25T07:23:52.349Z,50.42
2023-01-25T07:26:24.996Z,51.58
2023-01-25T07:31:22.627Z,55.65
2023-01-25T07:33:53.604Z,53.60
2023-01-25T07:36:23.831Z,58.05
2023-01-25T07:38:55.758Z,58.63
2023-01-25T07:41:25.040Z,58.28
2023-01-25T07:43:54.250Z,57.85
2023-01-25T07:46:34.188Z,59.40
2023-01-25T07:49:04.133Z,56.22
2023-01-25T07:51:32.556Z,52.90
2023-01-25T07:54:03.789Z,57.08
2023-01-25T07:56:34.503Z,60.83
2023-01-25T07:59:04.084Z,52.88
2023-01-25T08:01:36.886Z,57.13
2023-01-25T08:04:09.990Z,68.30
2023-01-25T08:06:41.688Z,57.42
2023-01-25T08:09:14.577Z,59.87
2023-01-25T08:14:12.406Z,56.40
2023-01-25T08:16:41.338Z,51.20
2023-01-25T08:19:12.408Z,58.92
2023-01-25T08:21:40.949Z,59.75
2023-01-25T08:24:10.565Z,95.70
2023-01-25T08:26:39.118Z,67.47
2023-01-25T08:29:08.584Z,68.85
2023-01-25T08:31:37.813Z,102.68
2023-01-25T08:34:07.244Z,66.80
2023-01-25T08:36:37.131Z,68.03
2023-01-25T08:39:11.640Z,72.80
2023-01-25T08:41:40.386Z,69.63
2023-01-25T08:44:08.856Z,78.38
2023-01-25T08:46:37.034Z,80.97
2023-01-25T08:49:07.601Z,83.20
2023-01-25T08:51:37.449Z,70.57
2023-01-25T08:54:08.443Z,62.58
2023-01-25T08:56:38.830Z,87.57
2023-01-25T08:59:07.690Z,75.88
2023-01-25T09:01:36.500Z,92.95
2023-01-25T09:04:05.230Z,98.68
2023-01-25T09:06:36.296Z,96.55
2023-01-25T09:09:05.721Z,112.20
2023-01-25T09:11:37.097Z,89.72
2023-01-25T09:14:06.222Z,76.75
2023-01-25T09:16:34.849Z,112.18
2023-01-25T09:19:06.611Z,96.93
2023-01-25T09:21:37.296Z,97.53
2023-01-25T09:24:08.092Z,73.75
2023-01-25T09:26:40.879Z,115.85
2023-01-25T09:29:11.593Z,105.03
2023-01-25T09:31:43.849Z,86.05
2023-01-25T09:34:23.493Z,93.95
2023-01-25T09:36:53.441Z,110.97
2023-01-25T09:39:21.946Z,80.80
2023-01-25T09:42:39.342Z,74.28
2023-01-25T09:45:18.843Z,78.15
2023-01-25T09:47:55.875Z,97.15
2023-01-25T09:50:38.509Z,72.45
2023-01-25T09:53:29.171Z,70.68
2023-01-25T09:56:02.595Z,102.28
2023-01-25T09:58:38.646Z,119.03
2023-01-25T10:01:38.973Z,110.32
2023-01-25T10:04:17.561Z,110.22
2023-01-25T10:06:59.859Z,115.47
2023-01-25T10:12:20.499Z,101.30
2023-01-25T10:14:50.185Z,120.03
2023-01-25T10:17:28.782Z,104.53
2023-01-25T10:20:16.099Z,74.75
2023-01-25T10:22:52.395Z,110.30
2023-01-25T10:25:32.686Z,78.00
2023-01-25T10:28:31.908Z,101.97
2023-01-25T10:31:07.250Z,92.65
2023-01-25T10:33:44.344Z,92.75
2023-01-25T10:36:17.218Z,88.60
2023-01-25T10:38:50.175Z,71.78
2023-01-25T10:41:27.141Z,86.10
2023-01-25T10:44:21.577Z,76.30
2023-01-25T10:46:57.372Z,75.65
2023-01-25T10:49:30.579Z,64.97
2023-01-25T10:52:12.854Z,72.22
2023-01-25T10:54:41.381Z,77.78
2023-01-25T10:57:18.411Z,91.88
2023-01-25T10:59:50.186Z,72.47
2023-01-25T11:02:51.497Z,94.40
2023-01-25T11:05:30.584Z,81.57
2023-01-25T11:07:59.744Z,108.38
2023-01-25T11:10:36.591Z,115.70
2023-01-25T11:13:34.498Z,74.28
2023-01-25T11:16:28.893Z,85.13
2023-01-25T11:18:59.753Z,110.93
2023-01-25T11:21:30.070Z,81.65
2023-01-25T11:24:06.467Z,77.57
2023-01-25T11:26:37.367Z,83.85
2023-01-25T11:29:16.880Z,92.05
2023-01-25T11:31:49.025Z,98.30
2023-01-25T11:34:20.857Z,116.90
2023-01-25T11:37:22.126Z,108.53
2023-01-25T11:40:00.383Z,98.90
2023-01-25T11:42:39.628Z,134.95
2023-01-25T11:45:52.074Z,128.40
2023-01-25T11:48:43.522Z,105.85
2023-01-25T11:51:20.205Z,102.07
2023-01-25T11:54:06.594Z,107.63
2023-01-25T11:56:51.054Z,112.03
2023-01-25T11:59:54.164Z,99.20
2023-01-25T12:05:54.736Z,98.82
2023-01-25T12:08:55.895Z,103.25
2023-01-25T12:11:45.848Z,95.60
2023-01-25T12:14:28.894Z,90.20
2023-01-25T12:17:23.875Z,97.85
2023-01-25T12:20:18.709Z,94.10
2023-01-25T12:23:22.014Z,102.47
2023-01-25T12:28:41.466Z,105.40
2023-01-25T12:31:18.384Z,84.25
2023-01-25T12:33:54.921Z,83.88
2023-01-25T12:36:30.104Z,85.72
2023-01-25T12:39:04.416Z,88.28
2023-01-25T12:41:42.451Z,78.07
2023-01-25T12:44:20.406Z,82.97
2023-01-25T12:46:58.643Z,79.43
2023-01-25T12:49:34.794Z,80.65
2023-01-25T12:52:16.734Z,72.88
2023-01-25T12:54:49.042Z,80.77
2023-01-25T12:57:27.216Z,74.55
2023-01-25T13:00:06.954Z,74.15
2023-01-25T13:03:04.586Z,73.90
2023-01-25T13:05:41.020Z,71.78
2023-01-25T13:08:31.778Z,79.28
2023-01-25T13:11:15.544Z,77.18
2023-01-25T13:13:44.326Z,74.20
2023-01-25T13:16:38.175Z,75.13
2023-01-25T13:19:21.873Z,78.63
2023-01-25T13:21:56.578Z,68.78
2023-01-25T13:24:32.985Z,74.93
2023-01-25T13:27:24.521Z,77.53
2023-01-25T13:30:03.509Z,67.35
2023-01-25T13:33:07.825Z,76.05
2023-01-25T13:35:42.083Z,68.63
2023-01-25T13:38:36.493Z,64.65
2023-01-25T13:41:12.252Z,81.00
2023-01-25T13:43:44.287Z,73.07
2023-01-25T13:46:17.689Z,69.57
2023-01-25T13:49:05.557Z,66.43
2023-01-25T13:51:41.136Z,72.18
2023-01-25T13:54:18.250Z,70.13
2023-01-25T13:56:48.252Z,75.40
2023-01-25T13:59:27.679Z,73.63
2023-01-25T14:01:57.323Z,85.47
2023-01-25T14:04:26.916Z,84.88
2023-01-25T14:07:00.644Z,84.95
2023-01-25T14:09:30.654Z,76.85
2023-01-25T14:12:06.768Z,72.63
2023-01-25T14:14:36.623Z,75.10
2023-01-25T14:17:22.064Z,75.25
2023-01-25T14:19:52.539Z,75.68
2023-01-25T14:22:33.805Z,72.38
2023-01-25T14:25:14.605Z,77.63
2023-01-25T14:27:48.118Z,96.90
2023-01-25T14:30:23.905Z,73.60
2023-01-25T14:32:54.896Z,74.68
2023-01-25T14:35:54.545Z,80.80
2023-01-25T14:38:34.774Z,83.57
2023-01-25T14:41:12.962Z,72.03
2023-01-25T14:43:46.192Z,71.55
2023-01-25T14:46:38.622Z,72.60
2023-01-25T14:49:25.721Z,84.55
2023-01-25T14:52:03.320Z,83.00
2023-01-25T14:54:35.722Z,105.70
2023-01-25T14:59:39.789Z,101.40
2023-01-25T15:02:26.012Z,115.80
2023-01-25T15:05:10.906Z,106.38
2023-01-25T15:07:46.472Z,112.53
2023-01-25T15:10:22.483Z,91.15
2023-01-25T15:13:12.404Z,105.53
2023-01-25T15:15:55.183Z,110.97
2023-01-25T15:18:47.500Z,92.13
2023-01-25T15:21:17.531Z,97.13
2023-01-25T15:23:48.126Z,106.68
2023-01-25T15:26:22.020Z,101.75
2023-01-25T15:28:52.038Z,114.78
2023-01-25T15:31:25.945Z,103.47
2023-01-25T15:33:55.342Z,122.32
2023-01-25T15:36:23.823Z,137.55
2023-01-25T15:38:52.546Z,129.15
2023-01-25T15:41:21.365Z,119.20
2023-01-25T15:43:51.131Z,126.85
2023-01-25T15:46:24.860Z,125.82
2023-01-25T15:48:54.547Z,157.27
2023-01-25T15:51:23.453Z,151.23
2023-01-25T15:53:52.239Z,131.43
2023-01-25T15:56:22.725Z,123.30
2023-01-25T15:58:54.405Z,142.15
2023-01-25T16:01:27.514Z,136.07
2023-01-25T16:03:59.314Z,134.93
2023-01-25T16:06:40.004Z,144.95
2023-01-25T16:09:18.472Z,150.77
2023-01-25T16:11:50.560Z,151.68
2023-01-25T16:14:19.871Z,181.23
2023-01-25T16:16:54.283Z,180.88
2023-01-25T16:19:25.359Z,135.82
2023-01-25T16:21:54.908Z,153.30
2023-01-25T16:24:26.178Z,155.43
2023-01-25T16:26:57.326Z,674.78
2023-01-25T16:29:26.211Z,186.63
2023-01-25T16:31:57.350Z,178.55
2023-01-25T16:34:26.220Z,200.15
2023-01-25T16:36:54.467Z,187.35
2023-01-25T16:39:27.292Z,200.75
2023-01-25T16:41:57.630Z,182.55
2023-01-25T16:44:26.613Z,171.35
2023-01-25T16:46:58.763Z,163.27
2023-01-25T16:49:29.881Z,116.95
2023-01-25T16:51:59.304Z,153.95
2023-01-25T16:54:28.035Z,180.02
2023-01-25T16:56:56.575Z,173.10
2023-01-25T16:59:25.938Z,191.43
2023-01-25T17:01:56.431Z,188.07
2023-01-25T17:04:25.103Z,200.43
2023-01-25T17:06:54.151Z,170.13
2023-01-25T17:09:25.458Z,139.23
2023-01-25T17:11:55.235Z,158.63
2023-01-25T17:14:24.680Z,177.65
2023-01-25T17:16:53.426Z,143.52
2023-01-25T17:19:23.610Z,157.77
2023-01-25T17:21:51.859Z,100.65
2023-01-25T17:24:22.801Z,100.07
2023-01-25T17:26:51.604Z,119.63
2023-01-25T17:29:20.164Z,143.20
2023-01-25T17:31:49.199Z,133.25
2023-01-25T17:34:19.837Z,123.25
2023-01-25T17:36:51.240Z,115.90
2023-01-25T17:39:21.530Z,131.43
2023-01-25T17:41:51.886Z,119.80
2023-01-25T17:44:24.752Z,127.25
2023-01-25T17:46:53.468Z,129.95
2023-01-25T17:49:22.542Z,134.30
2023-01-25T17:51:52.604Z,106.85
2023-01-25T17:54:20.921Z,109.93
2023-01-25T17:56:49.512Z,91.13
2023-01-25T17:59:18.423Z,101.00
2023-01-25T18:01:46.793Z,88.38
2023-01-25T18:04:17.536Z,104.30
2023-01-25T18:06:46.351Z,104.50
2023-01-25T18:09:16.004Z,95.03
2023-01-25T18:11:44.618Z,91.43
2023-01-25T18:14:17.043Z,89.00
2023-01-25T18:16:45.941Z,84.85
2023-01-25T18:19:14.963Z,101.93
2023-01-25T18:21:43.602Z,94.65
2023-01-25T18:24:31.573Z,89.28
2023-01-25T18:27:05.492Z,108.22
2023-01-25T18:29:46.880Z,92.13
2023-01-25T18:32:16.380Z,78.68
2023-01-25T18:34:45.214Z,82.15
2023-01-25T18:37:21.065Z,103.38
2023-01-25T18:39:53.980Z,86.18
2023-01-25T18:42:25.536Z,87.20
2023-01-25T18:44:54.072Z,95.80
2023-01-25T18:47:24.568Z,82.82
2023-01-25T18:49:54.590Z,78.05
2023-01-25T18:52:24.699Z,69.60
2023-01-25T18:54:55.615Z,91.10
2023-01-25T18:57:24.329Z,82.28
2023-01-25T18:59:53.777Z,72.25
2023-01-25T19:02:23.479Z,64.72
2023-01-25T19:04:51.985Z,63.67
2023-01-25T19:07:20.683Z,54.97
2023-01-25T19:09:49.338Z,54.67
2023-01-25T19:12:19.043Z,54.70
2023-01-25T19:14:47.510Z,55.05
2023-01-25T19:17:15.734Z,66.18
2023-01-25T19:19:44.350Z,62.38
2023-01-25T19:22:12.928Z,58.78
2023-01-25T19:24:41.499Z,66.28
2023-01-25T19:27:09.907Z,69.32
2023-01-25T19:29:39.748Z,69.68
2023-01-25T19:32:10.641Z,75.28
2023-01-25T19:34:39.674Z,70.18
2023-01-25T19:37:07.979Z,66.20
2023-01-25T19:39:37.168Z,72.78
2023-01-25T19:42:06.692Z,63.58
2023-01-25T19:44:35.386Z,61.50
2023-01-25T19:47:07.679Z,53.53
2023-01-25T19:49:36.251Z,53.75
2023-01-25T19:52:04.720Z,51.97
2023-01-25T19:54:32.986Z,52.08
2023-01-25T19:57:01.430Z,60.10
2023-01-25T19:59:30.299Z,57.08
2023-01-25T20:01:58.839Z,57.75
2023-01-25T20:04:28.693Z,50.55
2023-01-25T20:06:57.097Z,45.88
2023-01-25T20:09:28.352Z,49.63
2023-01-25T20:11:58.214Z,46.22
2023-01-25T20:14:26.792Z,51.88
2023-01-25T20:16:55.619Z,45.88
2023-01-25T20:19:24.091Z,49.00
2023-01-25T20:21:54.467Z,45.80
2023-01-25T20:24:23.485Z,48.72
2023-01-25T20:26:52.623Z,52.35
2023-01-25T20:29:22.353Z,51.38
2023-01-25T20:31:51.144Z,53.38
2023-01-25T20:34:21.514Z,63.65
2023-01-25T20:36:51.104Z,67.90
2023-01-25T20:39:22.811Z,67.95
2023-01-25T20:41:53.749Z,68.97
2023-01-25T20:44:22.474Z,71.40
2023-01-25T20:46:54.505Z,74.63
2023-01-25T20:49:23.540Z,76.82
2023-01-25T20:51:51.788Z,80.88
2023-01-25T20:54:22.058Z,73.95
2023-01-25T20:56:50.750Z,68.70
2023-01-25T20:59:20.001Z,59.03
2023-01-25T21:01:50.272Z,57.15
2023-01-25T21:04:20.138Z,57.65
2023-01-25T21:06:48.946Z,60.28
2023-01-25T21:09:17.825Z,53.15
2023-01-25T21:11:48.868Z,57.80
2023-01-25T21:14:19.584Z,58.10
2023-01-25T21:16:48.267Z,54.75
2023-01-25T21:19:16.496Z,58.50
2023-01-25T21:21:46.594Z,64.10
2023-01-25T21:24:15.034Z,67.65
2023-01-25T21:26:44.048Z,69.28
2023-01-25T21:29:16.460Z,63.63
2023-01-25T21:31:44.794Z,59.88
2023-01-25T21:34:13.259Z,61.53
2023-01-25T21:36:41.930Z,59.45
2023-01-25T21:39:10.890Z,55.13
2023-01-25T21:41:39.901Z,61.60
2023-01-25T21:44:26.141Z,62.05
2023-01-25T21:47:23.514Z,64.20
2023-01-25T21:50:02.864Z,62.67
2023-01-25T21:52:31.334Z,64.00
2023-01-25T21:54:59.790Z,62.72
2023-01-25T21:57:28.328Z,66.20
2023-01-25T21:59:56.874Z,59.58
2023-01-25T22:02:27.175Z,64.60
2023-01-25T22:04:55.647Z,63.45
2023-01-25T22:07:24.524Z,69.80
2023-01-25T22:09:53.145Z,75.65
2023-01-25T22:12:21.596Z,71.53
2023-01-25T22:14:49.852Z,68.70
2023-01-25T22:17:19.845Z,72.05
2023-01-25T22:19:50.005Z,69.70
2023-01-25T22:22:18.877Z,74.82
2023-01-25T22:24:48.954Z,80.13
2023-01-25T22:27:34.028Z,69.72
2023-01-25T22:30:02.568Z,66.10
2023-01-25T22:32:31.276Z,73.22
2023-01-25T22:35:01.551Z,70.00
2023-01-25T22:37:30.122Z,76.35
2023-01-25T22:39:58.881Z,70.00
2023-01-25T22:42:27.561Z,73.93
2023-01-25T22:44:56.040Z,70.15
2023-01-25T22:47:24.652Z,67.60
2023-01-25T22:49:52.946Z,71.22
2023-01-25T22:52:23.312Z,82.35
2023-01-25T22:54:52.787Z,79.70
2023-01-25T22:57:21.415Z,79.30
2023-01-25T22:59:49.814Z,75.78
2023-01-25T23:02:18.276Z,75.22
2023-01-25T23:04:47.066Z,82.72
2023-01-25T23:07:19.131Z,93.72
2023-01-25T23:09:51.680Z,83.45
2023-01-25T23:14:51.513Z,88.90
2023-01-25T23:17:38.558Z,84.15
2023-01-25T23:20:10.611Z,87.00
2023-01-25T23:22:40.167Z,91.03
2023-01-25T23:25:13.042Z,98.22
2023-01-25T23:27:41.479Z,98.18
2023-01-25T23:30:12.114Z,96.78
2023-01-25T23:32:45.939Z,97.28
2023-01-25T23:35:14.372Z,94.40
2023-01-25T23:37:43.157Z,82.90
2023-01-25T23:40:16.114Z,90.97
2023-01-25T23:42:44.667Z,90.40
2023-01-25T23:45:12.899Z,82.72
2023-01-25T23:47:41.490Z,94.95
2023-01-25T23:50:12.403Z,82.22
2023-01-25T23:52:41.547Z,97.63
2023-01-25T23:55:13.020Z,104.28
2023-01-25T23:57:41.607Z,96.72
